createdAt,value
2022-07-27T00:01:05.435Z,99.90
2022-07-27T00:03:33.119Z,99.90
2022-07-27T00:06:00.597Z,99.90
2022-07-27T00:08:28.151Z,99.90
2022-07-27T00:10:55.549Z,99.90
2022-07-27T00:13:22.985Z,99.90
2022-07-27T00:15:50.319Z,99.90
2022-07-27T00:18:17.833Z,99.90
2022-07-27T00:20:45.376Z,99.90
2022-07-27T00:23:12.897Z,99.90
2022-07-27T00:25:40.322Z,99.90
2022-07-27T00:28:07.792Z,99.90
2022-07-27T00:30:35.182Z,99.90
2022-07-27T00:33:03.704Z,99.90
2022-07-27T00:35:31.304Z,99.90
2022-07-27T00:37:58.758Z,99.90
2022-07-27T00:40:27.091Z,99.90
2022-07-27T00:42:54.541Z,99.90
2022-07-27T00:45:21.843Z,99.90
2022-07-27T00:47:54.570Z,99.90
2022-07-27T00:50:22.336Z,99.90
2022-07-27T00:52:49.912Z,99.90
2022-07-27T00:55:17.378Z,99.90
2022-07-27T00:57:57.925Z,99.90
2022-07-27T01:00:27.569Z,99.90
2022-07-27T01:02:55.132Z,99.90
2022-07-27T01:05:36.148Z,99.90
2022-07-27T01:08:05.114Z,99.90
2022-07-27T01:10:32.488Z,99.90
2022-07-27T01:13:00.230Z,99.90
2022-07-27T01:15:27.486Z,99.90
2022-07-27T01:17:54.911Z,99.90
2022-07-27T01:20:22.609Z,99.90
2022-07-27T01:22:50.040Z,99.90
2022-07-27T01:25:17.621Z,99.90
2022-07-27T01:27:44.929Z,99.90
2022-07-27T01:30:27.494Z,99.90
2022-07-27T01:33:01.567Z,99.90
2022-07-27T01:35:29.585Z,99.90
2022-07-27T01:37:57.162Z,99.90
2022-07-27T01:40:24.553Z,99.90
2022-07-27T01:42:52.415Z,99.90
2022-07-27T01:45:19.989Z,99.90
2022-07-27T01:47:47.409Z,99.90
2022-07-27T01:50:14.814Z,99.90
2022-07-27T01:52:42.074Z,99.90
2022-07-27T01:55:10.358Z,99.90
2022-07-27T01:57:38.282Z,99.90
2022-07-27T02:00:07.009Z,99.90
2022-07-27T02:02:39.950Z,99.90
2022-07-27T02:05:08.019Z,99.90
2022-07-27T02:07:35.443Z,99.90
2022-07-27T02:10:02.881Z,99.90
2022-07-27T02:12:36.860Z,99.90
2022-07-27T02:15:05.831Z,99.90
2022-07-27T02:17:33.888Z,99.90
2022-07-27T02:20:03.507Z,99.90
2022-07-27T02:22:31.310Z,99.90
2022-07-27T02:24:58.600Z,99.90
2022-07-27T02:27:26.165Z,99.90
2022-07-27T02:29:53.560Z,99.90
2022-07-27T02:32:21.107Z,99.90
2022-07-27T02:34:48.454Z,99.90
2022-07-27T02:37:16.173Z,99.90
2022-07-27T02:39:43.713Z,99.90
2022-07-27T02:42:11.051Z,99.90
2022-07-27T02:44:38.391Z,99.90
2022-07-27T02:47:05.681Z,99.90
2022-07-27T02:49:33.036Z,99.90
2022-07-27T02:52:00.712Z,99.90
2022-07-27T02:54:29.229Z,99.90
2022-07-27T02:56:56.570Z,99.90
2022-07-27T02:59:23.878Z,99.90
2022-07-27T03:01:51.366Z,99.90
2022-07-27T03:04:19.123Z,99.90
2022-07-27T03:06:46.691Z,99.90
2022-07-27T03:09:14.662Z,99.90
2022-07-27T03:11:42.318Z,99.90
2022-07-27T03:14:09.851Z,99.90
2022-07-27T03:16:37.208Z,99.90
2022-07-27T03:19:05.519Z,99.90
2022-07-27T03:21:32.909Z,99.90
2022-07-27T03:24:00.255Z,99.90
2022-07-27T03:26:27.570Z,99.90
2022-07-27T03:28:54.934Z,99.90
2022-07-27T03:31:22.257Z,99.90
2022-07-27T03:33:49.807Z,99.90
2022-07-27T03:36:17.139Z,99.90
2022-07-27T03:38:44.548Z,99.90
2022-07-27T03:41:11.821Z,99.90
2022-07-27T03:43:39.278Z,99.90
2022-07-27T03:46:06.893Z,99.90
2022-07-27T03:48:34.244Z,99.90
2022-07-27T03:51:01.683Z,99.90
2022-07-27T03:53:28.941Z,99.90
2022-07-27T03:55:56.320Z,99.90
2022-07-27T03:58:23.793Z,99.90
2022-07-27T04:00:51.168Z,99.90
2022-07-27T04:03:18.611Z,99.90
2022-07-27T04:05:45.900Z,99.90
2022-07-27T04:08:14.054Z,99.90
2022-07-27T04:10:41.721Z,99.90
2022-07-27T04:13:11.303Z,99.90
2022-07-27T04:15:38.862Z,99.90
2022-07-27T04:18:06.355Z,99.90
2022-07-27T04:20:33.880Z,99.90
2022-07-27T04:23:01.221Z,99.90
2022-07-27T04:25:28.660Z,99.90
2022-07-27T04:27:59.035Z,99.90
2022-07-27T04:30:26.621Z,99.90
2022-07-27T04:32:54.128Z,99.90
2022-07-27T04:35:26.277Z,99.90
2022-07-27T04:37:58.436Z,99.90
2022-07-27T04:40:29.919Z,99.90
2022-07-27T04:42:57.243Z,99.90
2022-07-27T04:45:25.726Z,99.90
2022-07-27T04:47:53.330Z,99.90
2022-07-27T04:50:21.174Z,99.90
2022-07-27T04:52:49.034Z,99.90
2022-07-27T04:55:19.502Z,99.90
2022-07-27T04:57:46.984Z,99.90
2022-07-27T05:00:14.545Z,99.90
2022-07-27T05:02:41.880Z,99.90
2022-07-27T05:05:10.152Z,99.90
2022-07-27T05:07:37.561Z,99.90
2022-07-27T05:10:05.143Z,99.90
2022-07-27T05:12:32.517Z,99.90
2022-07-27T05:14:59.880Z,99.90
2022-07-27T05:17:27.193Z,99.90
2022-07-27T05:19:54.711Z,99.90
2022-07-27T05:22:22.226Z,99.90
2022-07-27T05:24:49.722Z,99.90
2022-07-27T05:27:17.220Z,99.90
2022-07-27T05:29:44.549Z,99.90
2022-07-27T05:32:12.029Z,99.90
2022-07-27T05:34:39.736Z,99.90
2022-07-27T05:37:07.036Z,99.90
2022-07-27T05:39:34.314Z,99.90
2022-07-27T05:42:01.895Z,99.90
2022-07-27T05:44:29.213Z,99.90
2022-07-27T05:46:56.926Z,99.90
2022-07-27T05:49:24.616Z,99.90
2022-07-27T05:51:51.920Z,99.90
2022-07-27T05:54:19.413Z,99.90
2022-07-27T05:56:47.266Z,99.90
2022-07-27T05:59:14.936Z,99.90
2022-07-27T06:01:42.618Z,99.90
2022-07-27T06:04:09.903Z,99.90
2022-07-27T06:07:00.457Z,99.90
2022-07-27T06:09:27.735Z,99.90
2022-07-27T06:11:55.104Z,99.90
2022-07-27T06:14:22.323Z,99.90
2022-07-27T06:16:49.991Z,99.90
2022-07-27T06:19:17.377Z,99.90
2022-07-27T06:21:44.734Z,99.90
2022-07-27T06:24:12.465Z,99.90
2022-07-27T06:26:39.865Z,99.90
2022-07-27T06:29:09.927Z,99.90
2022-07-27T06:31:38.663Z,99.90
2022-07-27T06:34:08.200Z,99.90
2022-07-27T06:36:42.357Z,99.90
2022-07-27T06:39:10.068Z,99.90
2022-07-27T06:41:37.665Z,99.90
2022-07-27T06:44:05.100Z,99.90
2022-07-27T06:46:32.393Z,99.90
2022-07-27T06:48:59.718Z,99.90
2022-07-27T06:51:27.037Z,99.90
2022-07-27T06:53:54.502Z,99.90
2022-07-27T06:56:22.300Z,99.90
2022-07-27T06:58:50.269Z,99.90
2022-07-27T07:01:17.944Z,99.90
2022-07-27T07:03:45.400Z,99.90
2022-07-27T07:06:12.763Z,99.90
2022-07-27T07:08:40.126Z,99.90
2022-07-27T07:11:09.257Z,99.90
2022-07-27T07:13:39.271Z,99.90
2022-07-27T07:16:08.433Z,99.90
2022-07-27T07:18:35.864Z,99.90
2022-07-27T07:21:03.203Z,99.90
2022-07-27T07:23:30.668Z,99.90
2022-07-27T07:25:57.951Z,99.90
2022-07-27T07:28:25.275Z,99.90
2022-07-27T07:30:52.738Z,99.90
2022-07-27T07:33:20.208Z,99.90
2022-07-27T07:36:12.610Z,99.90
2022-07-27T07:38:34.667Z,99.90
2022-07-27T07:41:02.234Z,99.90
2022-07-27T07:43:29.500Z,99.90
2022-07-27T07:45:56.791Z,99.90
2022-07-27T07:48:24.127Z,99.90
2022-07-27T07:50:53.654Z,99.90
2022-07-27T07:53:24.836Z,99.90
2022-07-27T07:55:53.353Z,99.90
2022-07-27T07:58:20.912Z,99.90
2022-07-27T08:00:49.004Z,99.90
2022-07-27T08:03:16.770Z,99.90
2022-07-27T08:05:44.592Z,99.90
2022-07-27T08:08:12.257Z,99.50
2022-07-27T08:10:39.995Z,98.30
2022-07-27T08:13:07.330Z,96.30
2022-07-27T08:15:35.936Z,96.70
2022-07-27T08:18:04.841Z,96.40
2022-07-27T08:20:32.197Z,95.40
2022-07-27T08:22:59.641Z,97.40
2022-07-27T08:25:26.877Z,98.20
2022-07-27T08:27:55.344Z,99.30
2022-07-27T08:30:23.830Z,98.60
2022-07-27T08:32:51.414Z,98.50
2022-07-27T08:35:19.473Z,97.50
2022-07-27T08:37:47.116Z,95.80
2022-07-27T08:43:02.389Z,94.60
2022-07-27T08:45:30.496Z,93.70
2022-07-27T08:47:57.757Z,93.10
2022-07-27T08:50:25.658Z,93.70
2022-07-27T08:53:00.183Z,93.30
2022-07-27T08:55:28.436Z,93.30
2022-07-27T08:58:00.575Z,92.40
2022-07-27T09:00:30.935Z,91.70
2022-07-27T09:02:58.739Z,91.20
2022-07-27T09:05:27.497Z,90.80
2022-07-27T09:07:54.977Z,90.80
2022-07-27T09:10:32.707Z,91.40
2022-07-27T09:13:00.165Z,91.40
2022-07-27T09:15:34.197Z,91.80
2022-07-27T09:18:16.064Z,92.50
2022-07-27T09:20:43.412Z,91.90
2022-07-27T09:23:10.901Z,91.70
2022-07-27T09:26:02.378Z,91.40
2022-07-27T09:28:30.477Z,91.70
2022-07-27T09:31:04.818Z,91.80
2022-07-27T09:33:33.736Z,91.70
2022-07-27T09:36:01.362Z,91.50
2022-07-27T09:38:28.617Z,91.70
2022-07-27T09:40:59.455Z,92.50
2022-07-27T09:44:28.720Z,92.40
2022-07-27T09:46:14.276Z,94.10
2022-07-27T09:48:41.762Z,94.70
2022-07-27T09:51:55.967Z,95.10
2022-07-27T09:53:59.744Z,95.00
2022-07-27T09:56:31.045Z,94.40
2022-07-27T09:58:58.940Z,95.10
2022-07-27T10:01:27.339Z,95.30
2022-07-27T10:03:56.052Z,94.40
2022-07-27T10:06:25.158Z,93.60
2022-07-27T10:08:53.779Z,95.00
2022-07-27T10:11:21.783Z,95.00
2022-07-27T10:13:50.081Z,93.70
2022-07-27T10:16:18.708Z,93.60
2022-07-27T10:18:55.452Z,94.60
2022-07-27T10:21:23.653Z,95.60
2022-07-27T10:24:01.290Z,96.70
2022-07-27T10:26:29.968Z,97.10
2022-07-27T10:28:58.759Z,97.00
2022-07-27T10:31:27.571Z,97.50
2022-07-27T10:34:00.256Z,97.70
2022-07-27T10:36:27.468Z,96.40
2022-07-27T10:38:58.704Z,97.30
2022-07-27T10:41:27.126Z,95.70
2022-07-27T10:44:13.043Z,95.70
2022-07-27T10:46:59.899Z,95.40
2022-07-27T10:49:27.645Z,94.90
2022-07-27T10:51:55.703Z,95.70
2022-07-27T10:54:24.171Z,96.30
2022-07-27T10:56:52.108Z,93.50
2022-07-27T10:59:58.167Z,92.60
2022-07-27T11:02:38.942Z,92.10
2022-07-27T11:05:06.523Z,92.90
2022-07-27T11:07:44.172Z,93.50
2022-07-27T11:10:13.049Z,94.20
2022-07-27T11:12:40.864Z,94.00
2022-07-27T11:15:08.218Z,94.40
2022-07-27T11:20:24.069Z,96.70
2022-07-27T11:25:38.881Z,98.80
2022-07-27T11:28:07.628Z,98.10
2022-07-27T11:30:35.022Z,98.60
2022-07-27T11:33:04.910Z,99.40
2022-07-27T11:35:32.339Z,99.80
2022-07-27T11:38:04.998Z,99.30
2022-07-27T11:41:07.032Z,99.90
2022-07-27T11:43:38.576Z,99.90
2022-07-27T11:46:32.125Z,99.90
2022-07-27T11:49:17.491Z,99.90
2022-07-27T11:51:46.211Z,99.90
2022-07-27T11:54:21.602Z,99.80
2022-07-27T11:56:51.266Z,99.90
2022-07-27T11:59:20.329Z,99.90
2022-07-27T12:01:53.692Z,99.90
2022-07-27T12:04:25.306Z,99.90
2022-07-27T12:07:00.505Z,99.90
2022-07-27T12:09:38.041Z,99.90
2022-07-27T12:12:10.859Z,99.90
2022-07-27T12:14:39.242Z,99.90
2022-07-27T12:17:08.318Z,99.90
2022-07-27T12:19:39.167Z,99.90
2022-07-27T12:22:06.610Z,99.90
2022-07-27T12:24:37.161Z,99.90
2022-07-27T12:27:06.869Z,99.90
2022-07-27T12:29:34.413Z,99.90
2022-07-27T12:32:03.275Z,99.90
2022-07-27T12:34:34.053Z,99.90
2022-07-27T12:37:01.640Z,99.90
2022-07-27T12:39:29.417Z,99.90
2022-07-27T12:42:03.929Z,99.90
2022-07-27T12:44:35.301Z,99.90
2022-07-27T12:47:27.381Z,99.90
2022-07-27T12:50:15.674Z,99.90
2022-07-27T12:52:42.944Z,99.90
2022-07-27T12:55:15.481Z,99.90
2022-07-27T12:57:55.691Z,99.90
2022-07-27T13:00:27.969Z,99.90
2022-07-27T13:03:00.743Z,99.90
2022-07-27T13:05:28.142Z,99.90
2022-07-27T13:07:55.733Z,99.90
2022-07-27T13:10:23.050Z,99.90
2022-07-27T13:12:50.429Z,99.90
2022-07-27T13:15:18.174Z,99.90
2022-07-27T13:17:46.167Z,99.90
2022-07-27T13:20:14.422Z,99.90
2022-07-27T13:22:42.140Z,99.90
2022-07-27T13:25:16.375Z,99.90
2022-07-27T13:27:45.578Z,99.90
2022-07-27T13:30:13.610Z,99.90
2022-07-27T13:32:41.472Z,99.90
2022-07-27T13:35:09.851Z,99.90
2022-07-27T13:37:40.154Z,99.90
2022-07-27T13:40:08.494Z,99.90
2022-07-27T13:42:36.299Z,99.90
2022-07-27T13:45:09.779Z,99.90
2022-07-27T13:47:38.562Z,99.90
2022-07-27T13:50:06.276Z,99.90
2022-07-27T13:52:33.676Z,99.90
2022-07-27T13:55:00.937Z,99.90
2022-07-27T13:57:28.326Z,99.90
2022-07-27T13:59:55.684Z,99.90
2022-07-27T14:02:25.185Z,99.90
2022-07-27T14:04:53.318Z,99.90
2022-07-27T14:07:26.321Z,99.90
2022-07-27T14:10:13.891Z,99.90
2022-07-27T14:12:41.179Z,99.90
2022-07-27T14:15:08.915Z,99.90
2022-07-27T14:17:37.512Z,99.90
2022-07-27T14:20:05.853Z,99.90
2022-07-27T14:22:33.553Z,99.90
2022-07-27T14:25:01.174Z,99.90
2022-07-27T14:27:33.718Z,99.90
2022-07-27T14:30:08.630Z,99.90
2022-07-27T14:32:36.712Z,99.90
2022-07-27T14:35:05.585Z,99.90
2022-07-27T14:37:37.309Z,99.90
2022-07-27T14:40:05.404Z,99.90
2022-07-27T14:42:53.394Z,99.90
2022-07-27T14:45:25.189Z,99.90
2022-07-27T14:48:17.227Z,99.90
2022-07-27T14:50:48.695Z,99.90
2022-07-27T14:53:15.966Z,99.90
2022-07-27T14:55:43.790Z,99.90
2022-07-27T14:58:11.274Z,99.90
2022-07-27T15:00:38.963Z,99.90
2022-07-27T15:03:06.369Z,99.90
2022-07-27T15:05:34.159Z,99.90
2022-07-27T15:08:20.942Z,99.90
2022-07-27T15:10:48.988Z,99.90
2022-07-27T15:13:16.866Z,99.90
2022-07-27T15:15:44.594Z,99.90
2022-07-27T15:18:12.235Z,99.90
2022-07-27T15:20:39.773Z,99.90
2022-07-27T15:23:07.047Z,99.90
2022-07-27T15:25:34.407Z,99.90
2022-07-27T15:28:01.614Z,99.90
2022-07-27T15:30:28.948Z,99.90
2022-07-27T15:32:56.237Z,99.90
2022-07-27T15:35:23.899Z,99.90
2022-07-27T15:37:53.611Z,99.90
2022-07-27T15:40:38.199Z,99.90
2022-07-27T15:43:06.220Z,99.90
2022-07-27T15:45:38.423Z,99.90
2022-07-27T15:48:07.283Z,99.90
2022-07-27T15:50:35.475Z,99.90
2022-07-27T15:53:05.077Z,99.90
2022-07-27T15:55:32.873Z,99.90
2022-07-27T15:58:00.158Z,99.90
2022-07-27T16:00:27.950Z,99.90
2022-07-27T16:02:56.900Z,99.90
2022-07-27T16:05:24.278Z,99.90
2022-07-27T16:07:51.640Z,99.90
2022-07-27T16:10:19.112Z,99.90
2022-07-27T16:12:46.580Z,99.90
2022-07-27T16:15:13.880Z,99.90
2022-07-27T16:17:41.285Z,99.90
2022-07-27T16:20:08.818Z,99.90
2022-07-27T16:22:38.012Z,99.90
2022-07-27T16:25:05.570Z,99.90
2022-07-27T16:27:37.698Z,99.90
2022-07-27T16:30:05.177Z,99.90
2022-07-27T16:32:32.684Z,99.90
2022-07-27T16:34:59.908Z,99.90
2022-07-27T16:37:27.138Z,99.90
2022-07-27T16:39:54.393Z,99.90
2022-07-27T16:42:21.643Z,99.90
2022-07-27T16:44:48.999Z,99.90
2022-07-27T16:47:16.379Z,99.90
2022-07-27T16:49:43.902Z,99.90
2022-07-27T16:52:11.422Z,99.90
2022-07-27T16:54:39.806Z,99.90
2022-07-27T16:57:09.146Z,99.90
2022-07-27T16:59:39.067Z,99.90
2022-07-27T17:02:06.394Z,99.90
2022-07-27T17:04:34.282Z,99.90
2022-07-27T17:07:01.602Z,99.90
2022-07-27T17:09:28.959Z,99.90
2022-07-27T17:11:56.223Z,99.90
2022-07-27T17:14:23.595Z,99.90
2022-07-27T17:16:52.129Z,99.90
2022-07-27T17:19:19.881Z,99.90
2022-07-27T17:21:48.033Z,99.90
2022-07-27T17:24:15.405Z,99.90
2022-07-27T17:26:42.696Z,99.90
2022-07-27T17:29:10.333Z,99.90
2022-07-27T17:31:37.945Z,99.90
2022-07-27T17:34:05.316Z,99.90
2022-07-27T17:36:35.652Z,99.90
2022-07-27T17:39:05.919Z,99.90
2022-07-27T17:41:33.523Z,99.90
2022-07-27T17:44:02.583Z,99.90
2022-07-27T17:46:30.560Z,99.90
2022-07-27T17:48:59.678Z,99.90
2022-07-27T17:51:27.598Z,99.90
2022-07-27T17:53:55.111Z,99.90
2022-07-27T17:56:22.449Z,99.90
2022-07-27T17:58:49.921Z,99.90
2022-07-27T18:01:17.289Z,99.90
2022-07-27T18:03:44.730Z,99.90
2022-07-27T18:06:12.073Z,99.90
2022-07-27T18:08:39.479Z,99.90
2022-07-27T18:11:07.301Z,99.90
2022-07-27T18:13:38.805Z,99.90
2022-07-27T18:16:12.120Z,99.90
2022-07-27T18:18:40.438Z,99.90
2022-07-27T18:21:08.756Z,99.90
2022-07-27T18:23:36.124Z,99.90
2022-07-27T18:26:03.882Z,99.90
2022-07-27T18:28:37.335Z,99.90
2022-07-27T18:31:08.391Z,99.90
2022-07-27T18:33:36.717Z,99.90
2022-07-27T18:36:05.367Z,99.90
2022-07-27T18:38:32.721Z,99.90
2022-07-27T18:41:00.116Z,99.90
2022-07-27T18:43:27.455Z,99.90
2022-07-27T18:45:55.474Z,99.90
2022-07-27T18:48:22.878Z,99.90
2022-07-27T18:50:50.705Z,99.90
2022-07-27T18:53:17.974Z,99.90
2022-07-27T18:55:45.522Z,99.90
2022-07-27T18:58:12.928Z,99.90
2022-07-27T19:00:40.698Z,99.90
2022-07-27T19:03:09.377Z,99.90
2022-07-27T19:05:41.560Z,99.90
2022-07-27T19:08:13.501Z,99.90
2022-07-27T19:10:42.309Z,99.90
2022-07-27T19:13:10.671Z,99.90
2022-07-27T19:15:38.476Z,99.90
2022-07-27T19:18:06.343Z,99.90
2022-07-27T19:20:33.830Z,99.90
2022-07-27T19:23:01.183Z,99.90
2022-07-27T19:25:30.360Z,99.90
2022-07-27T19:28:00.692Z,99.90
2022-07-27T19:30:28.015Z,99.90
2022-07-27T19:32:56.410Z,99.90
2022-07-27T19:35:23.731Z,99.90
2022-07-27T19:37:51.161Z,99.90
2022-07-27T19:40:44.070Z,99.90
2022-07-27T19:43:05.945Z,99.90
2022-07-27T19:45:33.505Z,99.90
2022-07-27T19:48:01.621Z,99.90
2022-07-27T19:50:29.286Z,99.90
2022-07-27T19:52:56.771Z,99.90
2022-07-27T19:55:24.158Z,99.90
2022-07-27T19:57:51.404Z,99.90
2022-07-27T20:00:18.708Z,99.90
2022-07-27T20:02:47.843Z,99.90
2022-07-27T20:05:15.293Z,99.90
2022-07-27T20:07:43.455Z,99.90
2022-07-27T20:10:10.985Z,99.90
2022-07-27T20:12:38.484Z,99.90
2022-07-27T20:15:06.569Z,99.90
2022-07-27T20:17:37.815Z,99.90
2022-07-27T20:20:08.813Z,99.90
2022-07-27T20:22:36.197Z,99.90
2022-07-27T20:25:03.748Z,99.90
2022-07-27T20:27:31.870Z,99.90
2022-07-27T20:29:59.125Z,99.90
2022-07-27T20:32:26.375Z,99.90
2022-07-27T20:34:53.690Z,99.90
2022-07-27T20:37:21.086Z,99.90
2022-07-27T20:39:48.326Z,99.90
2022-07-27T20:42:15.750Z,99.90
2022-07-27T20:44:43.464Z,99.90
2022-07-27T20:47:12.301Z,99.90
2022-07-27T20:49:39.611Z,99.90
2022-07-27T20:52:07.639Z,99.90
2022-07-27T20:54:35.595Z,99.90
2022-07-27T20:57:02.835Z,99.90
2022-07-27T20:59:30.162Z,99.90
2022-07-27T21:01:57.425Z,99.90
2022-07-27T21:04:24.889Z,99.90
2022-07-27T21:06:53.906Z,99.90
2022-07-27T21:09:21.937Z,99.90
2022-07-27T21:11:49.562Z,99.90
2022-07-27T21:14:16.850Z,99.90
2022-07-27T21:16:44.175Z,99.90
2022-07-27T21:19:12.325Z,99.90
2022-07-27T21:21:39.872Z,99.90
2022-07-27T21:24:17.307Z,99.90
2022-07-27T21:26:46.610Z,99.90
2022-07-27T21:29:16.432Z,99.90
2022-07-27T21:31:48.211Z,99.90
2022-07-27T21:34:18.757Z,99.90
2022-07-27T21:36:46.676Z,99.90
2022-07-27T21:39:13.932Z,99.90
2022-07-27T21:41:41.432Z,99.90
2022-07-27T21:44:08.698Z,99.90
2022-07-27T21:46:36.043Z,99.90
2022-07-27T21:49:03.785Z,99.90
2022-07-27T21:51:31.189Z,99.90
2022-07-27T21:53:58.530Z,99.90
2022-07-27T21:56:25.964Z,99.90
2022-07-27T21:58:53.241Z,99.90
2022-07-27T22:01:20.731Z,99.90
2022-07-27T22:03:48.164Z,99.90
2022-07-27T22:06:15.734Z,99.90
2022-07-27T22:08:48.988Z,99.90
2022-07-27T22:11:16.379Z,99.90
2022-07-27T22:13:43.796Z,99.90
2022-07-27T22:16:13.288Z,99.90
2022-07-27T22:18:40.587Z,99.90
2022-07-27T22:21:08.784Z,99.90
2022-07-27T22:23:36.085Z,99.90
2022-07-27T22:26:03.379Z,99.90
2022-07-27T22:28:30.697Z,99.90
2022-07-27T22:31:16.544Z,99.90
2022-07-27T22:33:45.483Z,99.90
2022-07-27T22:36:12.724Z,99.90
2022-07-27T22:38:40.236Z,99.90
2022-07-27T22:41:08.002Z,99.90
2022-07-27T22:43:35.365Z,99.90
2022-07-27T22:46:04.735Z,99.90
2022-07-27T22:48:32.723Z,99.90
2022-07-27T22:51:00.029Z,99.90
2022-07-27T22:53:27.378Z,99.90
2022-07-27T22:55:54.682Z,99.90
2022-07-27T22:58:22.014Z,99.90
2022-07-27T23:00:49.505Z,99.90
2022-07-27T23:03:16.843Z,99.90
2022-07-27T23:05:44.332Z,99.90
2022-07-27T23:08:11.598Z,99.90
2022-07-27T23:10:47.821Z,99.90
2022-07-27T23:13:16.137Z,99.90
2022-07-27T23:15:44.266Z,99.90
2022-07-27T23:18:11.833Z,99.90
2022-07-27T23:20:40.205Z,99.90
2022-07-27T23:23:15.685Z,99.90
2022-07-27T23:25:48.072Z,99.90
2022-07-27T23:28:16.353Z,99.90
2022-07-27T23:30:43.670Z,99.90
2022-07-27T23:33:11.161Z,99.90
2022-07-27T23:35:38.499Z,99.90
2022-07-27T23:38:05.785Z,99.90
2022-07-27T23:40:33.162Z,99.90
2022-07-27T23:43:00.420Z,99.90
2022-07-27T23:45:28.115Z,99.90
2022-07-27T23:47:55.325Z,99.90
2022-07-27T23:50:22.655Z,99.90
2022-07-27T23:52:49.983Z,99.90
2022-07-27T23:55:17.441Z,99.90
2022-07-27T23:57:44.731Z,99.90
